Time;durP1;ratioP1;P1;durP2;ratioP2;P2;SDS_P1;SDS_P2;PMS_P1;PMS_P2;Temp;Humidity;BMP_temperature;BMP_pressure;BME280_temperature;BME280_humidity;BME280_pressure;Samples;Min_cycle;Max_cycle;Signal;HPM_P1;HPM_P2
2022/08/08 00:03:51;;;;;;;9.60;5.10;;;;;;;14.71;65.20;101191.86;108970;1270;21986;-75
2022/08/08 00:06:51;;;;;;;7.10;5.80;;;;;;;14.67;65.32;101188.73;109238;1266;23393;-75
2022/08/08 00:10:10;;;;;;;6.80;4.30;;;;;;;14.66;65.49;101186.90;109165;1267;22090;-76
2022/08/08 00:13:13;;;;;;;11.80;5.20;;;;;;;14.65;65.54;101185.68;109744;1261;21969;-77
2022/08/08 00:16:11;;;;;;;8.00;5.70;;;;;;;14.63;65.61;101187.69;109203;1267;21997;-76
2022/08/08 00:19:03;;;;;;;8.20;5.40;;;;;;;14.62;65.59;101187.10;109198;1267;23680;-77
2022/08/08 00:21:56;;;;;;;6.10;4.70;;;;;;;14.61;65.69;101191.69;108832;1271;21987;-77
2022/08/08 00:24:46;;;;;;;6.40;4.70;;;;;;;14.59;65.53;101190.66;108948;1270;24319;-77
2022/08/08 00:27:19;;;;;;;6.90;4.90;;;;;;;14.56;65.56;101189.48;108990;1270;22157;-77
2022/08/08 00:30:12;;;;;;;7.00;4.90;;;;;;;14.54;65.69;101185.73;108933;1270;22785;-77
2022/08/08 00:33:03;;;;;;;12.40;4.80;;;;;;;14.52;65.73;101185.45;108982;1270;21983;-77
2022/08/08 00:35:50;;;;;;;9.40;5.30;;;;;;;14.50;65.73;101184.85;108958;1270;21983;-77
2022/08/08 00:38:43;;;;;;;14.00;4.90;;;;;;;14.48;65.79;101184.14;108999;1269;22469;-75
2022/08/08 00:41:32;;;;;;;8.90;6.20;;;;;;;14.46;65.82;101182.81;109064;1270;22989;-76
2022/08/08 00:44:42;;;;;;;10.10;4.90;;;;;;;14.43;65.94;101180.96;109706;1260;23136;-75
2022/08/08 00:48:04;;;;;;;13.40;5.60;;;;;;;14.42;65.97;101182.50;110150;1260;21982;-75
2022/08/08 00:51:49;;;;;;;8.80;4.90;;;;;;;14.38;66.09;101189.13;109273;1265;23608;-75
2022/08/08 00:54:56;;;;;;;9.70;4.90;;;;;;;14.34;66.07;101189.81;109285;1264;22475;-75
2022/08/08 00:58:10;;;;;;;9.80;4.60;;;;;;;14.30;66.09;101186.00;108930;1270;23050;-75
2022/08/08 01:01:32;;;;;;;10.10;4.90;;;;;;;14.25;66.15;101189.77;108908;1270;21996;-77
2022/08/08 01:05:05;;;;;;;6.60;4.90;;;;;;;14.17;66.20;101192.88;108830;1270;22703;-75
2022/08/08 01:08:15;;;;;;;8.00;4.80;;;;;;;14.14;66.37;101191.17;108903;1270;24415;-75
2022/08/08 01:11:25;;;;;;;9.20;4.60;;;;;;;14.11;66.57;101189.80;108815;1273;23623;-77
2022/08/08 01:14:58;;;;;;;7.90;5.20;;;;;;;14.09;66.68;101186.89;108748;1273;22752;-75
2022/08/08 01:18:20;;;;;;;6.60;5.00;;;;;;;14.06;66.77;101188.66;108929;1270;22027;-75
2022/08/08 01:21:33;;;;;;;6.30;5.30;;;;;;;14.00;66.79;101194.58;108991;1270;21984;-75
2022/08/08 01:24:56;;;;;;;7.10;4.70;;;;;;;13.97;66.91;101196.52;108861;1270;22763;-75
2022/08/08 01:27:38;;;;;;;6.10;4.80;;;;;;;13.95;67.02;101198.69;109060;1263;23907;-75
2022/08/08 01:30:51;;;;;;;7.40;5.30;;;;;;;13.94;67.00;101200.61;109891;1256;21962;-75
2022/08/08 01:33:39;;;;;;;10.00;5.50;;;;;;;13.92;67.11;101198.18;110721;1254;21996;-75
2022/08/08 01:37:18;;;;;;;7.50;5.10;;;;;;;13.88;67.13;101200.52;110831;1253;23150;-75
2022/08/08 01:40:26;;;;;;;9.20;4.80;;;;;;;13.84;67.21;101200.45;110762;1253;22087;-75
2022/08/08 01:43:31;;;;;;;7.90;5.50;;;;;;;13.81;67.22;101200.08;110610;1255;21953;-77
2022/08/08 01:46:40;;;;;;;6.10;4.90;;;;;;;13.78;67.29;101196.75;110765;1253;21957;-76
2022/08/08 01:49:47;;;;;;;6.60;5.00;;;;;;;13.74;67.26;101195.92;110542;1253;21968;-76
2022/08/08 01:52:44;;;;;;;9.00;5.00;;;;;;;13.72;67.50;101197.55;110562;1254;24445;-76
2022/08/08 01:56:06;;;;;;;7.50;5.00;;;;;;;13.70;67.64;101197.78;110785;1253;22107;-76
2022/08/08 01:59:34;;;;;;;6.90;4.60;;;;;;;13.67;67.76;101192.98;110683;1253;23740;-77
2022/08/08 02:03:15;;;;;;;6.20;4.40;;;;;;;13.65;67.92;101196.20;110339;1253;21959;-74
2022/08/08 02:06:56;;;;;;;7.60;4.70;;;;;;;13.64;68.30;101196.83;110681;1253;21943;-75
2022/08/08 02:09:50;;;;;;;8.90;4.90;;;;;;;13.63;68.37;101197.10;109402;1265;23771;-75
2022/08/08 02:12:59;;;;;;;7.60;4.70;;;;;;;13.63;68.44;101199.09;109421;1264;22032;-75
2022/08/08 02:15:44;;;;;;;7.60;5.10;;;;;;;13.62;68.50;101199.89;109167;1267;22081;-75
2022/08/08 02:18:33;;;;;;;8.50;5.60;;;;;;;13.62;68.57;101199.32;109266;1265;21989;-75
2022/08/08 02:24:51;;;;;;;9.80;5.90;;;;;;;13.63;68.81;101205.80;109376;1264;21974;-75
2022/08/08 02:27:52;;;;;;;12.90;5.60;;;;;;;13.62;68.84;101209.41;109348;1264;21982;-75
2022/08/08 02:31:08;;;;;;;10.10;5.50;;;;;;;13.60;68.68;101207.48;109294;1265;21972;-75
2022/08/08 02:34:17;;;;;;;8.90;5.20;;;;;;;13.56;68.89;101207.92;109195;1267;22276;-74
2022/08/08 02:37:23;;;;;;;12.20;5.70;;;;;;;13.54;68.79;101206.23;109650;1265;21991;-75
2022/08/08 02:40:44;;;;;;;8.90;6.50;;;;;;;13.53;68.81;101209.17;109326;1265;21972;-76
2022/08/08 02:44:00;;;;;;;9.10;5.90;;;;;;;13.53;68.93;101213.07;109515;1265;22910;-75
2022/08/08 02:47:26;;;;;;;8.40;4.90;;;;;;;13.52;68.87;101216.55;109810;1256;21976;-75
2022/08/08 02:50:41;;;;;;;8.00;5.70;;;;;;;13.51;68.87;101215.18;110852;1253;22144;-75
2022/08/08 02:54:12;;;;;;;8.80;5.00;;;;;;;13.50;68.84;101218.16;110102;1260;21992;-75
2022/08/08 02:57:24;;;;;;;9.70;5.80;;;;;;;13.48;68.75;101220.16;109983;1261;22022;-76
2022/08/08 03:01:15;;;;;;;8.80;5.90;;;;;;;13.42;68.67;101220.42;109291;1264;21969;-75
2022/08/08 03:04:30;;;;;;;9.90;4.70;;;;;;;13.36;68.72;101221.31;108828;1270;21978;-76
2022/08/08 03:07:51;;;;;;;7.00;5.60;;;;;;;13.29;68.79;101218.13;108831;1270;23684;-75
2022/08/08 03:11:08;;;;;;;7.90;5.20;;;;;;;13.24;69.05;101223.11;108428;1276;21981;-74
2022/08/08 03:14:24;;;;;;;11.70;6.30;;;;;;;13.20;69.21;101221.37;108404;1276;22040;-75
2022/08/08 03:17:54;;;;;;;8.40;5.50;;;;;;;13.18;69.37;101222.40;108482;1276;23616;-75
2022/08/08 03:20:52;;;;;;;12.40;6.10;;;;;;;13.17;69.52;101221.70;108337;1279;24320;-75
2022/08/08 03:23:24;;;;;;;9.90;5.80;;;;;;;13.16;69.56;101223.14;108326;1279;21992;-75
2022/08/08 03:26:35;;;;;;;9.50;5.50;;;;;;;13.15;69.56;101227.88;108324;1279;21999;-75
2022/08/08 03:29:34;;;;;;;12.00;5.80;;;;;;;13.13;69.74;101235.48;108314;1276;24218;-75
2022/08/08 03:35:28;;;;;;;10.80;6.00;;;;;;;13.09;69.76;101238.09;108701;1273;22019;-76
2022/08/08 03:38:03;;;;;;;10.60;7.50;;;;;;;13.08;69.79;101232.85;108713;1273;23222;-75
2022/08/08 03:40:55;;;;;;;9.10;5.50;;;;;;;13.08;69.85;101231.45;108885;1270;21994;-75
2022/08/08 03:43:27;;;;;;;7.20;6.30;;;;;;;13.09;69.98;101230.49;108706;1273;22011;-75
2022/08/08 03:46:08;;;;;;;8.10;6.00;;;;;;;13.10;69.95;101235.71;108648;1273;21982;-75
2022/08/08 03:48:41;;;;;;;7.00;5.50;;;;;;;13.10;69.88;101237.64;109193;1267;23081;-75
2022/08/08 03:51:34;;;;;;;7.00;5.90;;;;;;;13.10;69.98;101237.63;109082;1267;23017;-75
2022/08/08 03:54:20;;;;;;;9.10;6.60;;;;;;;13.11;70.02;101241.55;109273;1264;22373;-74
2022/08/08 03:57:15;;;;;;;8.20;6.30;;;;;;;13.13;70.05;101246.13;109722;1258;21963;-74
2022/08/08 04:00:11;;;;;;;13.20;7.90;;;;;;;13.15;70.13;101239.20;110005;1259;22022;-74
2022/08/08 04:02:56;;;;;;;11.80;7.60;;;;;;;13.18;70.32;101241.20;110662;1254;22007;-75
2022/08/08 04:05:32;;;;;;;16.40;7.10;;;;;;;13.22;70.31;101241.53;110698;1253;24283;-76
2022/08/08 04:08:10;;;;;;;19.90;8.50;;;;;;;13.25;70.20;101241.56;110537;1254;21955;-76
2022/08/08 04:11:02;;;;;;;11.20;8.80;;;;;;;13.28;70.19;101239.82;110655;1254;23749;-75
2022/08/08 04:13:45;;;;;;;12.00;8.00;;;;;;;13.32;70.27;101241.33;110595;1254;22411;-74
2022/08/08 04:16:35;;;;;;;16.30;9.30;;;;;;;13.37;70.30;101246.99;110853;1254;21966;-75
2022/08/08 04:19:09;;;;;;;9.10;8.20;;;;;;;13.42;70.23;101248.00;110598;1254;21976;-75
2022/08/08 04:21:57;;;;;;;13.20;7.20;;;;;;;13.48;70.23;101249.52;110706;1254;21984;-75
2022/08/08 04:24:30;;;;;;;12.90;7.30;;;;;;;13.53;70.21;101254.27;110526;1253;21981;-75
2022/08/08 04:27:03;;;;;;;11.80;7.30;;;;;;;13.58;70.26;101254.41;110545;1254;21960;-75
2022/08/08 04:29:38;;;;;;;16.50;10.50;;;;;;;13.65;70.38;101256.20;110832;1252;22234;-76
2022/08/08 04:32:23;;;;;;;14.40;10.90;;;;;;;13.70;70.28;101254.48;110752;1254;23041;-75
2022/08/08 04:35:10;;;;;;;15.70;11.20;;;;;;;13.74;70.35;101262.07;110592;1254;21958;-76
2022/08/08 04:37:43;;;;;;;12.60;11.10;;;;;;;13.81;70.30;101264.40;110608;1254;21968;-76
2022/08/08 04:40:18;;;;;;;16.60;13.70;;;;;;;13.87;70.29;101262.28;110646;1254;22047;-76
2022/08/08 04:42:55;;;;;;;20.20;14.70;;;;;;;13.93;70.20;101261.61;110538;1254;22011;-76
2022/08/08 04:45:41;;;;;;;20.10;16.60;;;;;;;14.00;70.07;101261.92;110707;1254;24284;-76
2022/08/08 04:48:11;;;;;;;20.40;15.60;;;;;;;14.07;70.03;101263.83;109854;1258;22731;-76
2022/08/08 04:50:43;;;;;;;17.00;14.50;;;;;;;14.17;69.89;101268.61;110212;1257;21975;-76
2022/08/08 04:53:16;;;;;;;21.00;14.30;;;;;;;14.25;69.81;101269.44;110420;1257;24434;-76
2022/08/08 04:56:06;;;;;;;20.00;14.50;;;;;;;14.35;69.75;101268.71;110354;1257;24321;-76
2022/08/08 04:58:39;;;;;;;16.80;12.50;;;;;;;14.44;69.50;101265.54;110322;1258;23034;-76
2022/08/08 05:01:09;;;;;;;13.40;11.60;;;;;;;14.55;69.07;101268.11;110438;1257;21984;-74
2022/08/08 05:03:45;;;;;;;16.00;12.80;;;;;;;14.65;68.87;101270.88;109556;1263;21990;-76
2022/08/08 05:06:37;;;;;;;15.90;13.00;;;;;;;14.77;68.78;101275.05;109927;1260;22440;-74
2022/08/08 05:09:08;;;;;;;16.80;10.50;;;;;;;14.89;68.56;101274.23;109895;1260;22081;-75
2022/08/08 05:11:40;;;;;;;13.80;10.20;;;;;;;15.01;68.18;101269.98;109942;1262;22034;-75
2022/08/08 05:14:18;;;;;;;13.90;9.30;;;;;;;15.13;67.89;101272.42;109803;1262;24143;-76
2022/08/08 05:16:52;;;;;;;13.60;10.50;;;;;;;15.26;67.67;101274.73;109969;1262;21984;-76
2022/08/08 05:19:34;;;;;;;20.00;11.40;;;;;;;15.43;67.46;101277.27;109620;1261;22347;-76
2022/08/08 05:22:30;;;;;;;12.60;9.40;;;;;;;15.65;67.14;101276.90;110287;1257;24156;-76
2022/08/08 05:25:00;;;;;;;9.00;8.00;;;;;;;15.81;66.75;101280.88;110440;1257;21971;-76
2022/08/08 05:27:33;;;;;;;11.90;8.90;;;;;;;16.01;66.39;101281.21;110348;1257;22067;-79
2022/08/08 05:30:10;;;;;;;12.40;8.90;;;;;;;16.22;66.12;101281.55;110454;1253;23587;-78
2022/08/08 05:32:44;;;;;;;11.10;7.70;;;;;;;16.45;65.81;101286.27;110661;1253;24283;-77
2022/08/08 05:35:22;;;;;;;16.60;7.80;;;;;;;16.73;65.48;101290.36;110711;1253;21971;-78
2022/08/08 05:38:07;;;;;;;11.20;5.90;;;;;;;17.03;64.91;101293.71;110597;1254;21972;-78
2022/08/08 05:41:04;;;;;;;15.40;6.20;;;;;;;17.41;64.03;101297.63;110781;1254;23571;-77
2022/08/08 05:43:44;;;;;;;10.80;5.20;;;;;;;17.76;63.26;101296.43;110626;1254;21960;-78
2022/08/08 05:46:34;;;;;;;9.40;5.10;;;;;;;18.18;62.31;101295.70;110423;1257;22366;-76
2022/08/08 05:49:07;;;;;;;8.00;4.20;;;;;;;18.59;61.16;101300.53;110344;1258;23763;-76
2022/08/08 05:51:40;;;;;;;11.10;4.70;;;;;;;18.91;58.67;101304.10;110513;1256;22263;-77
2022/08/08 05:54:24;;;;;;;7.70;4.80;;;;;;;19.17;57.71;101299.25;110443;1256;21981;-77
2022/08/08 05:57:19;;;;;;;7.00;4.50;;;;;;;19.55;57.40;101298.90;109963;1258;23045;-78
2022/08/08 06:00:10;;;;;;;4.60;3.70;;;;;;;20.01;56.68;101300.10;110299;1257;23588;-77
2022/08/08 06:03:11;;;;;;;8.20;4.40;;;;;;;20.41;55.19;101303.08;110232;1257;22885;-77
2022/08/08 06:05:58;;;;;;;7.30;3.40;;;;;;;20.88;54.45;101306.89;110145;1256;21959;-77
2022/08/08 06:08:36;;;;;;;9.60;3.90;;;;;;;21.28;52.96;101315.44;109375;1264;21984;-77
2022/08/08 06:11:10;;;;;;;8.30;3.40;;;;;;;21.74;51.90;101320.37;109259;1267;23058;-76
2022/08/08 06:13:47;;;;;;;8.00;6.10;;;;;;;22.13;50.04;101322.69;109640;1263;23577;-77
2022/08/08 06:16:21;;;;;;;8.10;3.70;;;;;;;22.60;49.67;101325.89;109646;1263;21964;-77
2022/08/08 06:19:09;;;;;;;6.60;3.50;;;;;;;23.06;47.88;101323.38;109781;1263;21967;-81
2022/08/08 06:21:48;;;;;;;6.00;2.40;;;;;;;23.36;46.33;101327.70;109561;1262;23602;-80
2022/08/08 06:24:28;;;;;;;5.50;2.20;;;;;;;23.54;44.74;101331.58;110106;1258;21997;-80
2022/08/08 06:27:09;;;;;;;4.50;2.10;;;;;;;23.66;43.67;101334.60;110439;1257;22001;-79
2022/08/08 06:30:13;;;;;;;6.30;1.90;;;;;;;23.82;42.92;101333.88;110470;1257;23037;-80
2022/08/08 06:33:00;;;;;;;5.60;2.10;;;;;;;23.98;42.87;101339.41;110608;1256;22759;-79
2022/08/08 06:35:31;;;;;;;4.00;1.50;;;;;;;24.16;42.13;101341.84;110628;1254;23595;-78
2022/08/08 06:38:27;;;;;;;3.80;1.70;;;;;;;24.20;41.64;101341.06;110799;1253;21983;-80
2022/08/08 06:41:05;;;;;;;4.60;2.00;;;;;;;24.30;41.36;101339.84;110819;1254;21948;-80
2022/08/08 06:43:38;;;;;;;5.00;2.50;;;;;;;24.58;41.67;101340.60;110855;1254;21993;-80
2022/08/08 06:46:17;;;;;;;4.30;1.40;;;;;;;24.89;40.05;101340.08;110838;1253;23007;-80
2022/08/08 06:48:52;;;;;;;3.90;1.00;;;;;;;24.97;38.24;101336.14;110479;1260;22461;-80
2022/08/08 06:51:22;;;;;;;4.00;0.80;;;;;;;25.02;37.84;101331.04;110375;1257;23587;-80
2022/08/08 06:54:01;;;;;;;2.20;1.10;;;;;;;25.16;37.67;101333.34;110232;1257;22013;-79
2022/08/08 06:56:38;;;;;;;3.60;1.10;;;;;;;25.30;36.59;101332.91;110070;1259;22584;-80
2022/08/08 06:59:15;;;;;;;4.40;1.80;;;;;;;25.32;36.43;101333.75;109290;1264;21947;-80
2022/08/08 07:01:59;;;;;;;5.90;1.60;;;;;;;25.37;37.66;101332.55;109581;1265;22396;-80
2022/08/08 07:05:05;;;;;;;3.20;1.60;;;;;;;25.64;37.47;101335.52;109983;1263;23990;-80
2022/08/08 07:07:52;;;;;;;5.30;1.60;;;;;;;25.77;36.29;101339.05;110275;1258;21975;-80
2022/08/08 07:10:26;;;;;;;5.00;1.50;;;;;;;25.81;36.05;101333.82;110379;1257;21971;-79
2022/08/08 07:13:05;;;;;;;2.80;1.50;;;;;;;25.91;36.01;101332.80;110375;1259;22330;-80
2022/08/08 07:16:01;;;;;;;4.20;1.60;;;;;;;26.10;35.50;101333.00;110262;1257;21965;-80
2022/08/08 07:18:51;;;;;;;2.80;1.30;;;;;;;26.28;35.12;101329.91;110491;1257;22069;-80
2022/08/08 07:21:41;;;;;;;3.00;1.30;;;;;;;26.60;35.37;101327.83;110411;1257;21968;-78
2022/08/08 07:24:19;;;;;;;2.10;1.30;;;;;;;26.91;34.62;101329.27;110529;1253;22036;-78
2022/08/08 07:26:57;;;;;;;1.90;1.10;;;;;;;27.12;34.14;101326.59;110308;1259;22277;-79
2022/08/08 07:29:36;;;;;;;236.60;26.00;;;;;;;27.29;33.07;101328.62;110143;1257;21972;-79
2022/08/08 07:32:26;;;;;;;4.10;1.30;;;;;;;27.31;32.46;101328.70;110123;1257;22918;-82
2022/08/08 07:35:00;;;;;;;2.90;1.30;;;;;;;27.26;32.43;101333.27;110374;1258;22042;-81
2022/08/08 07:37:42;;;;;;;2.30;1.30;;;;;;;27.08;32.63;101335.37;110188;1257;21981;-80
2022/08/08 07:40:40;;;;;;;1.90;0.90;;;;;;;26.99;32.92;101333.25;110208;1257;22413;-80
2022/08/08 07:43:12;;;;;;;4.00;1.10;;;;;;;27.02;33.03;101331.45;110643;1257;23599;-79
2022/08/08 07:45:46;;;;;;;2.80;1.00;;;;;;;27.16;32.96;101332.44;110325;1257;23595;-79
2022/08/08 07:48:36;;;;;;;2.10;0.80;;;;;;;27.17;32.07;101331.53;110459;1257;23087;-79
2022/08/08 07:51:08;;;;;;;2.10;1.00;;;;;;;26.98;31.88;101327.17;110605;1257;22057;-86
2022/08/08 07:54:35;;;;;;;2.70;0.70;;;;;;;27.01;32.70;101330.06;110112;1258;23042;-80
2022/08/08 07:57:51;;;;;;;2.90;1.00;;;;;;;26.95;32.08;101332.34;110388;1257;22035;-78
2022/08/08 08:00:30;;;;;;;1.90;1.20;;;;;;;26.78;32.16;101335.98;110174;1260;21970;-79
2022/08/08 08:03:12;;;;;;;1.90;0.90;;;;;;;26.76;32.22;101334.16;109213;1267;22441;-80
2022/08/08 08:05:57;;;;;;;4.70;1.00;;;;;;;26.91;32.25;101332.52;109500;1264;23711;-79
2022/08/08 08:09:03;;;;;;;1.50;0.80;;;;;;;27.11;31.52;101331.63;108316;1267;1219173;-79
2022/08/08 08:11:38;;;;;;;2.50;0.90;;;;;;;27.18;31.08;101330.14;109234;1267;22031;-80
2022/08/08 08:14:57;;;;;;;2.10;1.00;;;;;;;27.14;31.05;101329.66;109312;1264;23735;-81
2022/08/08 08:17:41;;;;;;;2.40;1.00;;;;;;;27.15;31.26;101326.58;108913;1270;22057;-79
2022/08/08 08:20:23;;;;;;;3.30;1.00;;;;;;;27.27;31.20;101328.29;108868;1270;23130;-79
2022/08/08 08:23:02;;;;;;;;;;;;;;;27.44;31.22;101330.08;109242;1267;23691;-79
2022/08/08 08:25:34;;;;;;;4.50;1.10;;;;;;;27.42;30.79;101325.50;109206;1267;21978;-79
2022/08/08 08:28:15;;;;;;;1.40;0.60;;;;;;;27.54;30.77;101327.24;109256;1267;22455;-79
2022/08/08 08:30:55;;;;;;;2.10;0.90;;;;;;;27.66;30.41;101328.43;109188;1267;22531;-79
2022/08/08 08:33:25;;;;;;;4.20;3.80;;;;;;;27.81;30.22;101326.14;109259;1266;22024;-79
2022/08/08 08:35:55;;;;;;;2.90;1.40;;;;;;;28.01;30.01;101330.30;109585;1260;21977;-79
2022/08/08 08:38:46;;;;;;;2.10;1.00;;;;;;;28.05;29.30;101329.26;110653;1254;23665;-79
2022/08/08 08:41:23;;;;;;;2.00;0.70;;;;;;;27.98;29.31;101328.62;110636;1251;22198;-80
2022/08/08 08:43:54;;;;;;;2.10;0.70;;;;;;;28.05;29.30;101324.44;110757;1254;21967;-78
2022/08/08 08:46:44;;;;;;;3.70;1.50;;;;;;;28.18;29.39;101328.48;110525;1254;21981;-78
2022/08/08 08:49:26;;;;;;;5.30;4.00;;;;;;;28.31;28.73;101326.11;110521;1254;21959;-78
2022/08/08 08:52:08;;;;;;;5.40;2.30;;;;;;;28.21;28.22;101323.59;110505;1253;22960;-80
2022/08/08 08:54:39;;;;;;;8.50;2.10;;;;;;;27.79;28.16;101321.00;110800;1254;22119;-77
2022/08/08 08:57:10;;;;;;;2.90;1.10;;;;;;;27.36;29.04;101323.70;110778;1254;21962;-78
2022/08/08 08:59:49;;;;;;;4.20;1.80;;;;;;;26.99;30.16;101320.08;110748;1254;21969;-78
2022/08/08 09:02:36;;;;;;;4.10;3.00;;;;;;;26.91;30.97;101315.41;110854;1254;23567;-78
2022/08/08 09:05:19;;;;;;;3.10;2.30;;;;;;;27.08;31.23;101313.84;110688;1254;23611;-79
2022/08/08 09:08:08;;;;;;;1.30;0.80;;;;;;;27.21;30.59;101311.83;110531;1254;21961;-80
2022/08/08 09:10:42;;;;;;;4.40;1.80;;;;;;;27.18;30.28;101309.46;110318;1257;21979;-80
2022/08/08 09:13:17;;;;;;;3.10;1.50;;;;;;;27.22;30.69;101315.58;109540;1264;22047;-79
2022/08/08 09:15:56;;;;;;;1.90;0.90;;;;;;;27.38;30.77;101312.49;109816;1263;22034;-80
2022/08/08 09:18:33;;;;;;;5.20;1.80;;;;;;;27.55;30.54;101313.09;109325;1263;21968;-78
2022/08/08 09:21:03;;;;;;;2.30;1.00;;;;;;;27.75;30.36;101313.77;109200;1267;22001;-78
2022/08/08 09:23:57;;;;;;;3.70;1.60;;;;;;;27.78;29.36;101311.93;109107;1267;22251;-79
2022/08/08 09:26:51;;;;;;;2.40;1.30;;;;;;;27.70;28.95;101311.15;109010;1269;21976;-79
2022/08/08 09:29:23;;;;;;;1.10;0.70;;;;;;;27.70;29.30;101314.19;109221;1267;22001;-79
2022/08/08 09:32:04;;;;;;;2.00;1.00;;;;;;;27.78;29.37;101312.77;109742;1257;22141;-79
2022/08/08 09:34:50;;;;;;;1.90;1.00;;;;;;;27.91;29.07;101311.23;109952;1259;21963;-78
2022/08/08 09:37:27;;;;;;;4.70;1.00;;;;;;;28.01;29.16;101318.20;109994;1260;22442;-76
2022/08/08 09:40:20;;;;;;;3.90;0.70;;;;;;;27.89;28.39;101320.40;110553;1253;22045;-79
2022/08/08 09:43:29;;;;;;;5.40;0.90;;;;;;;27.68;28.19;101315.32;110679;1254;23571;-81
2022/08/08 09:46:21;;;;;;;2.70;1.10;;;;;;;27.73;28.88;101318.35;110497;1254;22888;-80
2022/08/08 09:49:01;;;;;;;3.90;1.20;;;;;;;27.90;29.05;101308.78;110731;1253;22285;-80
2022/08/08 09:51:54;;;;;;;3.00;0.80;;;;;;;28.16;28.73;101307.71;110559;1254;23587;-81
2022/08/08 09:54:46;;;;;;;5.60;1.20;;;;;;;28.34;28.14;101311.67;110648;1252;21928;-80
2022/08/08 09:57:35;;;;;;;11.80;1.60;;;;;;;28.43;27.55;101315.98;110816;1253;24319;-80
2022/08/08 10:00:18;;;;;;;1.60;0.80;;;;;;;28.28;27.31;101314.03;110539;1257;22763;-81
2022/08/08 10:03:12;;;;;;;2.40;0.90;;;;;;;28.09;27.69;101307.95;110478;1257;23490;-79
2022/08/08 10:05:43;;;;;;;1.90;0.80;;;;;;;27.85;27.77;101317.59;110230;1257;23614;-82
2022/08/08 10:08:17;;;;;;;4.10;0.90;;;;;;;27.41;28.15;101315.94;110240;1257;22972;-84
2022/08/08 10:11:05;;;;;;;4.30;0.80;;;;;;;27.12;28.62;101316.16;110119;1261;21982;-82
2022/08/08 10:13:58;;;;;;;1.90;1.00;;;;;;;26.64;28.80;101316.66;109678;1262;21997;-82
2022/08/08 10:16:42;;;;;;;2.50;0.90;;;;;;;26.30;29.32;101317.10;109641;1263;21992;-82
2022/08/08 10:19:18;;;;;;;;;;;;;;;26.18;30.04;101317.70;110289;1257;23599;-83
2022/08/08 10:21:54;;;;;;;2.00;0.80;;;;;;;26.08;30.08;101311.64;110269;1260;22007;-83
2022/08/08 10:24:23;;;;;;;1.60;0.70;;;;;;;26.13;30.41;101311.70;110318;1257;21964;-83
2022/08/08 10:27:04;;;;;;;1.20;0.40;;;;;;;26.35;30.73;101310.23;110341;1256;22389;-82
2022/08/08 10:29:43;;;;;;;6.50;0.90;;;;;;;26.48;30.31;101307.29;109992;1263;22234;-83
2022/08/08 10:32:31;;;;;;;2.80;1.40;;;;;;;26.35;29.51;101307.04;109815;1262;23699;-82
2022/08/08 10:35:14;;;;;;;1.90;0.80;;;;;;;26.13;29.48;101304.45;109405;1264;22038;-82
2022/08/08 10:38:06;;;;;;;1.30;0.70;;;;;;;25.83;29.42;101304.31;109644;1264;21941;-81
2022/08/08 10:40:38;;;;;;;2.20;0.70;;;;;;;25.60;29.97;101308.44;109230;1267;23605;-82
2022/08/08 10:43:17;;;;;;;2.10;1.60;;;;;;;25.40;30.42;101307.45;109337;1267;21985;-82
2022/08/08 10:45:50;;;;;;;3.80;1.10;;;;;;;25.23;30.48;101301.25;109353;1267;22438;-82
2022/08/08 10:48:34;;;;;;;2.40;0.70;;;;;;;25.14;31.36;101297.49;109365;1263;21970;-83
2022/08/08 10:51:35;;;;;;;1.70;0.70;;;;;;;25.02;32.14;101293.57;110055;1262;21982;-81
2022/08/08 10:54:20;;;;;;;2.50;0.80;;;;;;;25.08;32.37;101294.95;110237;1257;22255;-81
2022/08/08 10:57:03;;;;;;;2.20;1.70;;;;;;;25.20;31.80;101297.99;110238;1260;22762;-82
2022/08/08 10:59:33;;;;;;;4.50;1.60;;;;;;;25.35;31.47;101294.27;110260;1257;22205;-82
2022/08/08 11:02:10;;;;;;;5.10;1.10;;;;;;;25.44;30.84;101293.17;109968;1259;23048;-83
2022/08/08 11:04:45;;;;;;;2.40;1.70;;;;;;;25.46;30.58;101290.34;109813;1256;22175;-81
2022/08/08 11:07:37;;;;;;;3.10;1.10;;;;;;;25.46;30.86;101291.16;110664;1256;23574;-82
2022/08/08 11:10:25;;;;;;;1.80;0.80;;;;;;;25.34;30.98;101290.19;110708;1256;24427;-82
2022/08/08 11:12:58;;;;;;;3.40;1.30;;;;;;;25.25;31.58;101284.73;109963;1262;22398;-82
2022/08/08 11:15:48;;;;;;;4.30;1.00;;;;;;;25.24;32.10;101287.57;109871;1261;23718;-82
2022/08/08 11:18:32;;;;;;;;;;;;;;;25.22;32.03;101284.67;110243;1260;21963;-81
2022/08/08 11:21:06;;;;;;;2.40;1.40;;;;;;;25.13;31.87;101282.86;110278;1257;21965;-81
2022/08/08 11:23:43;;;;;;;2.50;0.70;;;;;;;25.13;32.38;101280.72;110348;1257;23056;-82
2022/08/08 11:26:34;;;;;;;1.50;0.60;;;;;;;25.10;31.81;101284.17;110570;1257;22037;-82
2022/08/08 11:29:22;;;;;;;7.20;0.90;;;;;;;25.03;31.97;101274.38;110649;1257;21980;-82
2022/08/08 11:32:13;;;;;;;2.90;0.90;;;;;;;25.01;32.65;101274.25;110568;1253;21958;-82
2022/08/08 11:34:46;;;;;;;1.20;0.70;;;;;;;25.05;32.42;101277.79;110852;1254;21974;-81
2022/08/08 11:37:37;;;;;;;2.60;1.00;;;;;;;25.00;32.07;101268.77;110918;1251;22734;-82
2022/08/08 11:40:31;;;;;;;3.90;0.90;;;;;;;25.03;32.54;101269.31;110914;1251;21961;-82
2022/08/08 11:43:01;;;;;;;1.60;0.90;;;;;;;25.05;32.73;101268.43;110732;1251;22075;-80
2022/08/08 11:45:31;;;;;;;6.70;1.70;;;;;;;25.11;32.78;101268.89;111146;1250;23684;-81
2022/08/08 11:48:22;;;;;;;2.00;0.70;;;;;;;25.15;32.19;101276.11;111111;1251;22273;-81
2022/08/08 11:50:59;;;;;;;4.80;1.50;;;;;;;25.06;31.67;101270.36;111018;1253;21973;-82
2022/08/08 11:53:50;;;;;;;4.00;1.10;;;;;;;24.98;31.69;101265.80;110942;1251;22017;-79
2022/08/08 11:56:34;;;;;;;2.60;0.60;;;;;;;24.90;31.51;101266.05;110934;1254;22402;-81
2022/08/08 11:59:13;;;;;;;4.20;1.00;;;;;;;24.82;31.77;101264.15;110740;1256;21933;-81
2022/08/08 12:01:43;;;;;;;5.50;3.00;;;;;;;24.84;32.06;101263.34;110323;1257;21975;-80
2022/08/08 12:04:12;;;;;;;5.00;2.40;;;;;;;24.88;31.92;101263.69;110558;1257;21975;-80
2022/08/08 12:06:42;;;;;;;2.10;0.90;;;;;;;24.92;31.89;101262.19;110435;1257;21981;-81
2022/08/08 12:09:16;;;;;;;3.90;0.70;;;;;;;24.91;31.58;101265.73;110485;1257;21966;-81
2022/08/08 12:11:49;;;;;;;1.50;0.60;;;;;;;24.78;31.34;101260.82;110112;1257;22853;-80
2022/08/08 12:14:25;;;;;;;2.10;0.70;;;;;;;24.73;31.76;101262.99;109797;1262;23042;-81
2022/08/08 12:17:06;;;;;;;5.70;2.30;;;;;;;24.73;31.39;101268.23;109600;1259;21974;-81
2022/08/08 12:19:38;;;;;;;1.50;0.70;;;;;;;24.80;31.65;101268.80;110255;1259;22007;-79
2022/08/08 12:22:19;;;;;;;2.40;1.20;;;;;;;24.89;31.36;101263.53;110274;1257;21956;-78
2022/08/08 12:24:49;;;;;;;3.30;1.10;;;;;;;24.98;31.42;101258.85;109891;1260;23967;-79
2022/08/08 12:27:24;;;;;;;2.60;1.10;;;;;;;25.08;31.26;101260.66;110062;1260;21957;-81
2022/08/08 12:30:06;;;;;;;1.60;0.80;;;;;;;25.13;30.71;101263.80;110264;1259;21977;-82
2022/08/08 12:32:53;;;;;;;2.60;0.60;;;;;;;25.02;30.58;101262.16;110354;1253;22006;-81
2022/08/08 12:35:23;;;;;;;3.30;1.80;;;;;;;24.94;31.02;101259.52;110765;1254;22976;-81
2022/08/08 12:38:07;;;;;;;6.00;4.80;;;;;;;24.91;31.36;101256.50;110670;1253;22073;-81
2022/08/08 12:40:48;;;;;;;4.90;1.10;;;;;;;24.92;30.89;101258.66;110929;1251;22009;-82
2022/08/08 12:43:34;;;;;;;1.30;0.90;;;;;;;24.86;30.54;101259.43;109716;1260;22770;-82
2022/08/08 12:46:24;;;;;;;2.20;1.00;;;;;;;24.83;30.69;101256.61;110134;1258;21982;-81
2022/08/08 12:49:00;;;;;;;2.40;0.70;;;;;;;24.89;30.92;101252.77;109127;1263;21975;-81
2022/08/08 12:51:49;;;;;;;5.90;1.20;;;;;;;24.87;30.64;101254.15;109351;1263;23074;-82
2022/08/08 12:54:36;;;;;;;4.30;1.50;;;;;;;24.84;30.62;101251.27;109192;1263;22319;-82
2022/08/08 12:57:34;;;;;;;1.60;0.70;;;;;;;24.87;30.64;101248.84;109433;1264;22138;-84
2022/08/08 13:00:28;;;;;;;1.20;0.60;;;;;;;24.88;30.81;101247.51;108495;1277;23856;-82